Tabellarische Übersicht vom Mittwoch, den 15.08.2018

Oder anderes Datum wählen:






max 24,8°C 81,0% 17,2°C 1019,5hPa 25,0°C 0,0km/h (0Bft) 0,0km/h 0° (N) ∑0,0l/m² 90,000klx ∑0,0min
min 17,5°C 62,0% 12,8°C 1017,6hPa 17,0°C 0,0km/h (0Bft) 0,0km/h 0° (N) ∑0,0l/m² 0,000klx ∑0,0min
Ø 19,9°C 74,0% 15,0°C 1018,5hPa 20,0°C 0,0km/h (0Bft) 0,0km/h 0° (N) ∑0,0l/m² 25,000klx ∑0,0min
Zeit Temperatur Luftfeuchte Taupunkt Luftdruck Windchill Windböen Windgeschwindigkeit Windrichtung Regen Helligkeit Regenzeit
17:35 23,4°C 65,9% 16,7°C 1018,7hPa 23,4°C 0,0km/h (0Bft) 0,0km/h 0,0l/m² 21,093klx 0,0min
17:30 23,3°C 66,6% 16,7°C 1018,7hPa 23,3°C 0,0km/h (0Bft) 0,0km/h 0,0l/m² 19,645klx 0,0min
17:25 23,4°C 66,2% 16,8°C 1018,7hPa 23,4°C 0,0km/h (0Bft) 0,0km/h 0,0l/m² 19,213klx 0,0min
17:20 23,1°C 66,4% 16,5°C 1018,7hPa 23,1°C 0,0km/h (0Bft) 0,0km/h 0,0l/m² 16,839klx 0,0min
17:15 23,0°C 66,4% 16,4°C 1018,8hPa 23,0°C 0,0km/h (0Bft) 0,0km/h 0,0l/m² 14,448klx 0,0min
17:10 23,2°C 65,9% 16,5°C 1018,8hPa 23,2°C 0,0km/h (0Bft) 0,0km/h 0,0l/m² 13,688klx 0,0min
17:05 23,1°C 66,0% 16,4°C 1018,8hPa 23,1°C 0,0km/h (0Bft) 0,0km/h 0,0l/m² 13,649klx 0,0min
17:00 23,0°C 67,0% 16,6°C 1018,8hPa 23,0°C 0,0km/h (0Bft) 0,0km/h 0,0l/m² 14,986klx 0,0min
16:55 23,2°C 66,4% 16,6°C 1018,9hPa 23,2°C 0,0km/h (0Bft) 0,0km/h 0,0l/m² 15,899klx 0,0min
16:50 23,2°C 66,2% 16,6°C 1018,8hPa 23,2°C 0,0km/h (0Bft) 0,0km/h 0,0l/m² 17,034klx 0,0min
16:45 23,3°C 65,4% 16,5°C 1018,8hPa 23,3°C 0,0km/h (0Bft) 0,0km/h 0,0l/m² 17,845klx 0,0min
16:40 23,5°C 64,1% 16,3°C 1018,8hPa 23,5°C 0,0km/h (0Bft) 0,0km/h 0,0l/m² 19,337klx 0,0min
16:35 23,5°C 64,2% 16,4°C 1018,8hPa 23,5°C 0,0km/h (0Bft) 0,0km/h 0,0l/m² 23,012klx 0,0min
16:30 23,8°C 64,5% 16,7°C 1018,8hPa 23,8°C 0,0km/h (0Bft) 0,0km/h 0,0l/m² 26,667klx 0,0min
16:25 23,4°C 64,3% 16,2°C 1018,8hPa 23,4°C 0,0km/h (0Bft) 0,0km/h 0,0l/m² 29,877klx 0,0min
16:20 23,5°C 63,9% 16,3°C 1018,9hPa 23,5°C 0,0km/h (0Bft) 0,0km/h 0,0l/m² 30,607klx 0,0min
16:15 23,6°C 64,8% 16,6°C 1018,9hPa 23,6°C 0,0km/h (0Bft) 0,0km/h 0,0l/m² 28,268klx 0,0min
16:10 23,4°C 65,4% 16,6°C 1018,9hPa 23,4°C 0,0km/h (0Bft) 0,0km/h 0,0l/m² 27,626klx 0,0min
16:05 23,6°C 64,5% 16,5°C 1018,9hPa 23,6°C 0,0km/h (0Bft) 0,0km/h 0,0l/m² 30,625klx 0,0min
16:00 23,9°C 63,4% 16,6°C 1018,9hPa 23,9°C 0,0km/h (0Bft) 0,0km/h 0,0l/m² 33,493klx 0,0min
15:55 23,8°C 64,1% 16,6°C 1018,9hPa 23,8°C 0,0km/h (0Bft) 0,0km/h 0,0l/m² 34,805klx 0,0min
15:50 24,0°C 63,2% 16,5°C 1018,9hPa 24,0°C 0,0km/h (0Bft) 0,0km/h 0,0l/m² 41,392klx 0,0min
15:45 24,0°C 62,6% 16,4°C 1018,9hPa 24,0°C 0,0km/h (0Bft) 0,0km/h 0,0l/m² 49,413klx 0,0min
15:40 23,7°C 64,6% 16,6°C 1018,9hPa 23,7°C 0,0km/h (0Bft) 0,0km/h 0,0l/m² 38,774klx 0,0min
15:35 23,3°C 66,6% 16,7°C 1018,9hPa 23,3°C 0,0km/h (0Bft) 0,0km/h 0,0l/m² 34,251klx 0,0min
15:30 23,5°C 65,5% 16,6°C 1018,9hPa 23,5°C 0,0km/h (0Bft) 0,0km/h 0,0l/m² 32,608klx 0,0min
15:25 23,5°C 66,4% 16,8°C 1019,0hPa 23,5°C 0,0km/h (0Bft) 0,0km/h 0,0l/m² 27,153klx 0,0min
15:20 23,5°C 65,9% 16,8°C 1019,0hPa 23,5°C 0,0km/h (0Bft) 0,0km/h 0,0l/m² 27,347klx 0,0min
15:15 23,5°C 65,0% 16,6°C 1019,0hPa 23,5°C 0,0km/h (0Bft) 0,0km/h 0,0l/m² 35,404klx 0,0min
15:10 23,8°C 64,8% 16,8°C 1019,1hPa 23,8°C 0,0km/h (0Bft) 0,0km/h 0,0l/m² 44,565klx 0,0min
15:05 23,8°C 65,2% 16,9°C 1019,1hPa 23,8°C 0,0km/h (0Bft) 0,0km/h 0,0l/m² 39,516klx 0,0min
15:00 23,6°C 66,5% 17,0°C 1019,2hPa 23,6°C 0,0km/h (0Bft) 0,0km/h 0,0l/m² 33,915klx 0,0min
14:55 23,6°C 66,0% 16,8°C 1019,2hPa 23,6°C 0,0km/h (0Bft) 0,0km/h 0,0l/m² 36,581klx 0,0min
14:50 23,9°C 65,1% 17,0°C 1019,1hPa 23,9°C 0,0km/h (0Bft) 0,0km/h 0,0l/m² 38,460klx 0,0min
14:45 23,8°C 65,4% 16,9°C 1019,0hPa 23,8°C 0,0km/h (0Bft) 0,0km/h 0,0l/m² 58,552klx 0,0min
14:40 23,6°C 65,8% 16,8°C 1019,0hPa 23,6°C 0,0km/h (0Bft) 0,0km/h 0,0l/m² 53,836klx 0,0min
14:35 23,7°C 65,9% 16,9°C 1019,0hPa 23,7°C 0,0km/h (0Bft) 0,0km/h 0,0l/m² 51,276klx 0,0min
14:30 23,7°C 65,1% 16,8°C 1019,0hPa 23,7°C 0,0km/h (0Bft) 0,0km/h 0,0l/m² 55,540klx 0,0min
14:25 24,1°C 64,4% 17,0°C 1018,9hPa 24,1°C 0,0km/h (0Bft) 0,0km/h 0,0l/m² 58,780klx 0,0min
14:20 24,1°C 65,1% 17,1°C 1018,9hPa 24,1°C 0,0km/h (0Bft) 0,0km/h 0,0l/m² 57,677klx 0,0min
14:15 24,0°C 65,3% 17,0°C 1019,0hPa 24,0°C 0,0km/h (0Bft) 0,0km/h 0,0l/m² 55,661klx 0,0min
14:10 24,3°C 63,4% 16,9°C 1019,1hPa 24,3°C 0,0km/h (0Bft) 0,0km/h 0,0l/m² 56,545klx 0,0min
14:05 24,8°C 62,2% 17,1°C 1019,1hPa 24,8°C 0,0km/h (0Bft) 0,0km/h 0,0l/m² 82,038klx 0,0min
14:00 24,5°C 63,6% 17,2°C 1019,0hPa 24,5°C 0,0km/h (0Bft) 0,0km/h 0,0l/m² 90,128klx 0,0min
13:55 24,1°C 64,6% 17,0°C 1019,0hPa 24,1°C 0,0km/h (0Bft) 0,0km/h 0,0l/m² 88,023klx 0,0min
13:50 24,1°C 64,7% 17,1°C 1019,1hPa 24,1°C 0,0km/h (0Bft) 0,0km/h 0,0l/m² 88,408klx 0,0min
13:45 23,5°C 67,0% 17,0°C 1019,2hPa 23,5°C 0,0km/h (0Bft) 0,0km/h 0,0l/m² 75,252klx 0,0min
13:40 23,2°C 67,6% 16,9°C 1019,2hPa 23,2°C 0,0km/h (0Bft) 0,0km/h 0,0l/m² 62,551klx 0,0min
13:35 23,1°C 67,9% 16,8°C 1019,3hPa 23,1°C 0,0km/h (0Bft) 0,0km/h 0,0l/m² 61,134klx 0,0min
13:30 22,8°C 68,9% 16,8°C 1019,3hPa 22,8°C 0,0km/h (0Bft) 0,0km/h 0,0l/m² 59,906klx 0,0min
13:25 22,8°C 68,7% 16,8°C 1019,3hPa 22,8°C 0,0km/h (0Bft) 0,0km/h 0,0l/m² 61,774klx 0,0min
13:20 22,7°C 69,1% 16,8°C 1019,3hPa 22,7°C 0,0km/h (0Bft) 0,0km/h 0,0l/m² 59,924klx 0,0min
13:15 22,6°C 70,1% 16,8°C 1019,3hPa 22,6°C 0,0km/h (0Bft) 0,0km/h 0,0l/m² 63,093klx 0,0min
13:10 22,2°C 71,1% 16,7°C 1019,3hPa 22,2°C 0,0km/h (0Bft) 0,0km/h 0,0l/m² 56,351klx 0,0min
13:05 21,8°C 71,6% 16,4°C 1019,3hPa 21,8°C 0,0km/h (0Bft) 0,0km/h 0,0l/m² 48,340klx 0,0min
13:00 21,9°C 71,9% 16,6°C 1019,3hPa 21,9°C 0,0km/h (0Bft) 0,0km/h 0,0l/m² 53,339klx 0,0min
12:55 21,8°C 72,1% 16,6°C 1019,4hPa 21,8°C 0,0km/h (0Bft) 0,0km/h 0,0l/m² 48,977klx 0,0min
12:50 21,9°C 72,2% 16,6°C 1019,4hPa 21,9°C 0,0km/h (0Bft) 0,0km/h 0,0l/m² 48,946klx 0,0min
12:45 21,8°C 72,5% 16,6°C 1019,4hPa 21,8°C 0,0km/h (0Bft) 0,0km/h 0,0l/m² 46,964klx 0,0min
12:40 21,5°C 73,4% 16,6°C 1019,4hPa 21,5°C 0,0km/h (0Bft) 0,0km/h 0,0l/m² 44,503klx 0,0min
12:35 21,2°C 74,5% 16,5°C 1019,4hPa 21,2°C 0,0km/h (0Bft) 0,0km/h 0,0l/m² 38,279klx 0,0min
12:30 21,1°C 74,6% 16,4°C 1019,5hPa 21,1°C 0,0km/h (0Bft) 0,0km/h 0,0l/m² 36,284klx 0,0min
12:25 21,0°C 74,8% 16,3°C 1019,5hPa 21,0°C 0,0km/h (0Bft) 0,0km/h 0,0l/m² 37,529klx 0,0min
12:20 21,0°C 74,9% 16,4°C 1019,4hPa 21,0°C 0,0km/h (0Bft) 0,0km/h 0,0l/m² 38,665klx 0,0min
12:15 20,9°C 75,3% 16,3°C 1019,4hPa 20,9°C 0,0km/h (0Bft) 0,0km/h 0,0l/m² 35,979klx 0,0min
12:10 20,7°C 75,7% 16,3°C 1019,4hPa 20,7°C 0,0km/h (0Bft) 0,0km/h 0,0l/m² 34,917klx 0,0min
12:05 20,6°C 75,9% 16,2°C 1019,3hPa 20,6°C 0,0km/h (0Bft) 0,0km/h 0,0l/m² 35,201klx 0,0min
12:00 20,5°C 76,0% 16,1°C 1019,3hPa 20,5°C 0,0km/h (0Bft) 0,0km/h 0,0l/m² 32,331klx 0,0min
11:55 20,2°C 76,2% 15,9°C 1019,4hPa 20,2°C 0,0km/h (0Bft) 0,0km/h 0,0l/m² 29,363klx 0,0min
11:50 20,2°C 76,2% 15,8°C 1019,4hPa 20,2°C 0,0km/h (0Bft) 0,0km/h 0,0l/m² 27,522klx 0,0min
11:45 20,0°C 76,5% 15,8°C 1019,4hPa 20,0°C 0,0km/h (0Bft) 0,0km/h 0,0l/m² 24,816klx 0,0min
11:40 20,2°C 76,4% 15,9°C 1019,4hPa 20,2°C 0,0km/h (0Bft) 0,0km/h 0,0l/m² 22,987klx 0,0min
11:35 20,1°C 76,5% 15,8°C 1019,4hPa 20,1°C 0,0km/h (0Bft) 0,0km/h 0,0l/m² 22,002klx 0,0min
11:30 19,9°C 76,8% 15,7°C 1019,4hPa 19,9°C 0,0km/h (0Bft) 0,0km/h 0,0l/m² 20,862klx 0,0min
11:25 19,7°C 77,2% 15,5°C 1019,5hPa 19,7°C 0,0km/h (0Bft) 0,0km/h 0,0l/m² 19,462klx 0,0min
11:20 19,6°C 76,7% 15,4°C 1019,5hPa 19,6°C 0,0km/h (0Bft) 0,0km/h 0,0l/m² 18,092klx 0,0min
11:15 19,6°C 77,2% 15,5°C 1019,5hPa 19,6°C 0,0km/h (0Bft) 0,0km/h 0,0l/m² 17,236klx 0,0min
11:10 19,5°C 76,9% 15,3°C 1019,5hPa 19,5°C 0,0km/h (0Bft) 0,0km/h 0,0l/m² 16,486klx 0,0min
11:05 19,4°C 76,9% 15,3°C 1019,5hPa 19,4°C 0,0km/h (0Bft) 0,0km/h 0,0l/m² 15,083klx 0,0min
11:00 19,4°C 77,4% 15,3°C 1019,5hPa 19,4°C 0,0km/h (0Bft) 0,0km/h 0,0l/m² 15,416klx 0,0min
10:55 19,4°C 77,5% 15,3°C 1019,4hPa 19,4°C 0,0km/h (0Bft) 0,0km/h 0,0l/m² 15,451klx 0,0min
10:50 19,2°C 77,8% 15,2°C 1019,4hPa 19,2°C 0,0km/h (0Bft) 0,0km/h 0,0l/m² 14,743klx 0,0min
10:45 19,2°C 77,4% 15,1°C 1019,4hPa 19,2°C 0,0km/h (0Bft) 0,0km/h 0,0l/m² 14,442klx 0,0min
10:40 19,2°C 77,4% 15,1°C 1019,4hPa 19,2°C 0,0km/h (0Bft) 0,0km/h 0,0l/m² 15,141klx 0,0min
10:35 19,1°C 77,7% 15,1°C 1019,3hPa 19,1°C 0,0km/h (0Bft) 0,0km/h 0,0l/m² 14,861klx 0,0min
10:30 19,1°C 77,6% 15,1°C 1019,3hPa 19,1°C 0,0km/h (0Bft) 0,0km/h 0,0l/m² 14,297klx 0,0min
10:25 19,1°C 77,7% 15,1°C 1019,2hPa 19,1°C 0,0km/h (0Bft) 0,0km/h 0,0l/m² 13,483klx 0,0min
10:20 19,0°C 77,5% 15,0°C 1019,1hPa 19,0°C 0,0km/h (0Bft) 0,0km/h 0,0l/m² 12,836klx 0,0min
10:15 19,0°C 77,6% 15,0°C 1019,1hPa 19,0°C 0,0km/h (0Bft) 0,0km/h 0,0l/m² 12,412klx 0,0min
10:10 19,0°C 77,7% 15,0°C 1019,0hPa 19,0°C 0,0km/h (0Bft) 0,0km/h 0,0l/m² 12,704klx 0,0min
10:05 19,0°C 77,9% 15,0°C 1019,0hPa 19,0°C 0,0km/h (0Bft) 0,0km/h 0,0l/m² 12,254klx 0,0min
10:00 19,0°C 78,0% 15,0°C 1019,0hPa 19,0°C 0,0km/h (0Bft) 0,0km/h 0,0l/m² 12,128klx 0,0min
09:55 19,0°C 78,2% 15,1°C 1018,9hPa 19,0°C 0,0km/h (0Bft) 0,0km/h 0,0l/m² 11,818klx 0,0min
09:50 19,0°C 78,1% 15,1°C 1018,9hPa 19,0°C 0,0km/h (0Bft) 0,0km/h 0,0l/m² 11,103klx 0,0min
09:45 18,9°C 78,4% 15,1°C 1018,9hPa 18,9°C 0,0km/h (0Bft) 0,0km/h 0,0l/m² 10,368klx 0,0min
09:40 18,9°C 78,6% 15,1°C 1018,9hPa 18,9°C 0,0km/h (0Bft) 0,0km/h 0,0l/m² 9,789klx 0,0min
09:35 18,9°C 78,7% 15,1°C 1018,8hPa 18,9°C 0,0km/h (0Bft) 0,0km/h 0,0l/m² 9,299klx 0,0min
09:30 18,9°C 78,5% 15,0°C 1018,8hPa 18,9°C 0,0km/h (0Bft) 0,0km/h 0,0l/m² 9,455klx 0,0min
09:25 18,8°C 78,3% 15,0°C 1018,8hPa 18,8°C 0,0km/h (0Bft) 0,0km/h 0,0l/m² 9,258klx 0,0min
09:20 18,9°C 78,5% 15,1°C 1018,8hPa 18,9°C 0,0km/h (0Bft) 0,0km/h 0,0l/m² 9,019klx 0,0min
09:15 18,8°C 78,5% 15,0°C 1018,8hPa 18,8°C 0,0km/h (0Bft) 0,0km/h 0,0l/m² 8,839klx 0,0min
09:10 18,8°C 78,3% 15,0°C 1018,7hPa 18,8°C 0,0km/h (0Bft) 0,0km/h 0,0l/m² 9,187klx 0,0min
09:05 18,9°C 77,6% 14,9°C 1018,7hPa 18,9°C 0,0km/h (0Bft) 0,0km/h 0,0l/m² 10,024klx 0,0min
09:00 19,2°C 76,8% 15,0°C 1018,6hPa 19,2°C 0,0km/h (0Bft) 0,0km/h 0,0l/m² 12,153klx 0,0min
08:55 19,3°C 76,6% 15,1°C 1018,6hPa 19,3°C 0,0km/h (0Bft) 0,0km/h 0,0l/m² 19,631klx 0,0min
08:50 19,4°C 76,2% 15,1°C 1018,6hPa 19,4°C 0,0km/h (0Bft) 0,0km/h 0,0l/m² 20,576klx 0,0min
08:45 19,4°C 76,3% 15,1°C 1018,6hPa 19,4°C 0,0km/h (0Bft) 0,0km/h 0,0l/m² 24,661klx 0,0min
08:40 19,3°C 77,1% 15,2°C 1018,5hPa 19,3°C 0,0km/h (0Bft) 0,0km/h 0,0l/m² 26,554klx 0,0min
08:35 19,1°C 77,5% 15,0°C 1018,5hPa 19,1°C 0,0km/h (0Bft) 0,0km/h 0,0l/m² 19,468klx 0,0min
08:30 19,0°C 77,9% 15,1°C 1018,5hPa 19,0°C 0,0km/h (0Bft) 0,0km/h 0,0l/m² 17,019klx 0,0min
08:25 19,0°C 77,2% 14,9°C 1018,4hPa 19,0°C 0,0km/h (0Bft) 0,0km/h 0,0l/m² 16,413klx 0,0min
08:20 19,0°C 77,1% 14,9°C 1018,4hPa 19,0°C 0,0km/h (0Bft) 0,0km/h 0,0l/m² 22,759klx 0,0min
08:15 18,6°C 78,7% 14,8°C 1018,4hPa 18,6°C 0,0km/h (0Bft) 0,0km/h 0,0l/m² 24,064klx 0,0min
08:10 18,2°C 80,2% 14,7°C 1018,4hPa 18,2°C 0,0km/h (0Bft) 0,0km/h 0,0l/m² 15,162klx 0,0min
08:05 18,0°C 80,3% 14,6°C 1018,4hPa 18,0°C 0,0km/h (0Bft) 0,0km/h 0,0l/m² 12,548klx 0,0min
08:00 17,9°C 80,5% 14,5°C 1018,4hPa 17,9°C 0,0km/h (0Bft) 0,0km/h 0,0l/m² 10,605klx 0,0min
07:55 17,9°C 80,6% 14,5°C 1018,4hPa 17,9°C 0,0km/h (0Bft) 0,0km/h 0,0l/m² 8,953klx 0,0min
07:50 17,9°C 80,3% 14,5°C 1018,4hPa 17,9°C 0,0km/h (0Bft) 0,0km/h 0,0l/m² 8,420klx 0,0min
07:45 17,9°C 80,1% 14,4°C 1018,3hPa 17,9°C 0,0km/h (0Bft) 0,0km/h 0,0l/m² 8,718klx 0,0min
07:40 17,9°C 80,2% 14,4°C 1018,3hPa 17,9°C 0,0km/h (0Bft) 0,0km/h 0,0l/m² 8,292klx 0,0min
07:35 17,8°C 80,3% 14,4°C 1018,3hPa 17,8°C 0,0km/h (0Bft) 0,0km/h 0,0l/m² 7,277klx 0,0min
07:30 17,8°C 80,0% 14,3°C 1018,3hPa 17,8°C 0,0km/h (0Bft) 0,0km/h 0,0l/m² 6,390klx 0,0min
07:25 17,8°C 80,3% 14,4°C 1018,3hPa 17,8°C 0,0km/h (0Bft) 0,0km/h 0,0l/m² 5,526klx 0,0min
07:20 17,8°C 79,9% 14,2°C 1018,2hPa 17,8°C 0,0km/h (0Bft) 0,0km/h 0,0l/m² 4,848klx 0,0min
07:15 17,7°C 79,8% 14,2°C 1018,2hPa 17,7°C 0,0km/h (0Bft) 0,0km/h 0,0l/m² 4,203klx 0,0min
07:10 17,7°C 79,9% 14,2°C 1018,1hPa 17,7°C 0,0km/h (0Bft) 0,0km/h 0,0l/m² 3,538klx 0,0min
07:05 17,7°C 79,8% 14,1°C 1018,0hPa 17,7°C 0,0km/h (0Bft) 0,0km/h 0,0l/m² 2,955klx 0,0min
07:00 17,7°C 79,8% 14,1°C 1018,0hPa 17,7°C 0,0km/h (0Bft) 0,0km/h 0,0l/m² 2,495klx 0,0min
06:55 17,6°C 79,8% 14,1°C 1017,9hPa 17,6°C 0,0km/h (0Bft) 0,0km/h 0,0l/m² 2,123klx 0,0min
06:50 17,6°C 80,1% 14,2°C 1017,9hPa 17,6°C 0,0km/h (0Bft) 0,0km/h 0,0l/m² 1,821klx 0,0min
06:45 17,6°C 79,8% 14,1°C 1018,0hPa 17,6°C 0,0km/h (0Bft) 0,0km/h 0,0l/m² 1,531klx 0,0min
06:40 17,6°C 79,6% 14,1°C 1018,0hPa 17,6°C 0,0km/h (0Bft) 0,0km/h 0,0l/m² 1,190klx 0,0min
06:35 17,6°C 79,8% 14,1°C 1017,9hPa 17,6°C 0,0km/h (0Bft) 0,0km/h 0,0l/m² 0,909klx 0,0min
06:30 17,7°C 79,5% 14,1°C 1017,9hPa 17,7°C 0,0km/h (0Bft) 0,0km/h 0,0l/m² 0,660klx 0,0min
06:25 17,7°C 79,5% 14,1°C 1017,9hPa 17,7°C 0,0km/h (0Bft) 0,0km/h 0,0l/m² 0,467klx 0,0min
06:20 17,7°C 79,2% 14,0°C 1017,8hPa 17,7°C 0,0km/h (0Bft) 0,0km/h 0,0l/m² 0,293klx 0,0min
06:15 17,7°C 78,8% 14,0°C 1017,8hPa 17,7°C 0,0km/h (0Bft) 0,0km/h 0,0l/m² 0,178klx 0,0min
06:10 17,7°C 78,5% 13,9°C 1017,8hPa 17,7°C 0,0km/h (0Bft) 0,0km/h 0,0l/m² 0,107klx 0,0min
06:05 17,7°C 78,6% 13,9°C 1017,7hPa 17,7°C 0,0km/h (0Bft) 0,0km/h 0,0l/m² 0,053klx 0,0min
06:00 17,8°C 78,0% 13,9°C 1017,7hPa 17,8°C 0,0km/h (0Bft) 0,0km/h 0,0l/m² 0,026klx 0,0min
05:55 17,8°C 78,2% 13,9°C 1017,7hPa 17,8°C 0,0km/h (0Bft) 0,0km/h 0,0l/m² 0,012klx 0,0min
05:50 17,7°C 78,1% 13,9°C 1017,6hPa 17,7°C 0,0km/h (0Bft) 0,0km/h 0,0l/m² 0,006klx 0,0min
05:45 17,8°C 77,8% 13,8°C 1017,6hPa 17,8°C 0,0km/h (0Bft) 0,0km/h 0,0l/m² 0,003klx 0,0min
05:40 17,8°C 77,6% 13,8°C 1017,7hPa 17,8°C 0,0km/h (0Bft) 0,0km/h 0,0l/m² 0,002klx 0,0min
05:35 17,8°C 77,4% 13,8°C 1017,7hPa 17,8°C 0,0km/h (0Bft) 0,0km/h 0,0l/m² 0,001klx 0,0min
05:30 17,9°C 77,0% 13,8°C 1017,7hPa 17,9°C 0,0km/h (0Bft) 0,0km/h 0,0l/m² 0,001klx 0,0min
05:25 17,8°C 77,1% 13,7°C 1017,8hPa 17,8°C 0,0km/h (0Bft) 0,0km/h 0,0l/m² 0,001klx 0,0min
05:20 17,8°C 77,4% 13,8°C 1017,8hPa 17,8°C 0,0km/h (0Bft) 0,0km/h 0,0l/m² 0,000klx 0,0min
05:15 17,7°C 77,3% 13,7°C 1017,7hPa 17,7°C 0,0km/h (0Bft) 0,0km/h 0,0l/m² 0,000klx 0,0min
05:10 17,7°C 77,3% 13,7°C 1017,8hPa 17,7°C 0,0km/h (0Bft) 0,0km/h 0,0l/m² 0,000klx 0,0min
05:05 17,8°C 76,7% 13,7°C 1017,8hPa 17,8°C 0,0km/h (0Bft) 0,0km/h 0,0l/m² 0,000klx 0,0min
05:00 17,7°C 77,8% 13,8°C 1017,8hPa 17,7°C 0,0km/h (0Bft) 0,0km/h 0,0l/m² 0,000klx 0,0min
04:55 17,7°C 77,6% 13,7°C 1017,8hPa 17,7°C 0,0km/h (0Bft) 0,0km/h 0,0l/m² 0,000klx 0,0min
04:50 17,7°C 77,4% 13,7°C 1017,8hPa 17,7°C 0,0km/h (0Bft) 0,0km/h 0,0l/m² 0,000klx 0,0min
04:45 17,7°C 77,4% 13,7°C 1017,8hPa 17,7°C 0,0km/h (0Bft) 0,0km/h 0,0l/m² 0,000klx 0,0min
04:40 17,7°C 77,5% 13,7°C 1017,8hPa 17,7°C 0,0km/h (0Bft) 0,0km/h 0,0l/m² 0,000klx 0,0min
04:35 17,7°C 77,1% 13,6°C 1017,9hPa 17,7°C 0,0km/h (0Bft) 0,0km/h 0,0l/m² 0,000klx 0,0min
04:30 17,7°C 76,9% 13,6°C 1017,9hPa 17,7°C 0,0km/h (0Bft) 0,0km/h 0,0l/m² 0,000klx 0,0min
04:25 17,8°C 76,6% 13,6°C 1017,9hPa 17,8°C 0,0km/h (0Bft) 0,0km/h 0,0l/m² 0,000klx 0,0min
04:20 17,8°C 76,3% 13,5°C 1017,9hPa 17,8°C 0,0km/h (0Bft) 0,0km/h 0,0l/m² 0,000klx 0,0min
04:15 17,8°C 75,6% 13,4°C 1017,8hPa 17,8°C 0,0km/h (0Bft) 0,0km/h 0,0l/m² 0,000klx 0,0min
04:10 17,7°C 76,6% 13,5°C 1017,8hPa 17,7°C 0,0km/h (0Bft) 0,0km/h 0,0l/m² 0,000klx 0,0min
04:05 17,6°C 76,9% 13,5°C 1017,8hPa 17,6°C 0,0km/h (0Bft) 0,0km/h 0,0l/m² 0,001klx 0,0min
04:00 17,6°C 77,7% 13,6°C 1017,8hPa 17,6°C 0,0km/h (0Bft) 0,0km/h 0,0l/m² 0,000klx 0,0min
03:55 17,5°C 77,3% 13,5°C 1017,7hPa 17,5°C 0,0km/h (0Bft) 0,0km/h 0,0l/m² 0,000klx 0,0min
03:50 17,5°C 77,1% 13,4°C 1017,8hPa 17,5°C 0,0km/h (0Bft) 0,0km/h 0,0l/m² 0,000klx 0,0min
03:45 17,7°C 76,2% 13,4°C 1017,8hPa 17,7°C 0,0km/h (0Bft) 0,0km/h 0,0l/m² 0,000klx 0,0min
03:40 17,7°C 75,7% 13,3°C 1017,9hPa 17,7°C 0,0km/h (0Bft) 0,0km/h 0,0l/m² 0,000klx 0,0min
03:35 17,7°C 75,6% 13,4°C 1017,9hPa 17,7°C 0,0km/h (0Bft) 0,0km/h 0,0l/m² 0,000klx 0,0min
03:30 17,8°C 75,2% 13,3°C 1017,9hPa 17,8°C 0,0km/h (0Bft) 0,0km/h 0,0l/m² 0,000klx 0,0min
03:25 17,9°C 74,5% 13,3°C 1017,9hPa 17,9°C 0,0km/h (0Bft) 0,0km/h 0,0l/m² 0,000klx 0,0min
03:20 17,9°C 74,4% 13,3°C 1018,0hPa 17,9°C 0,0km/h (0Bft) 0,0km/h 0,0l/m² 0,000klx 0,0min
03:15 17,9°C 74,1% 13,2°C 1018,0hPa 17,9°C 0,0km/h (0Bft) 0,0km/h 0,0l/m² 0,000klx 0,0min
03:10 17,8°C 74,2% 13,2°C 1017,9hPa 17,8°C 0,0km/h (0Bft) 0,0km/h 0,0l/m² 0,000klx 0,0min
03:05 17,8°C 74,2% 13,2°C 1017,9hPa 17,8°C 0,0km/h (0Bft) 0,0km/h 0,0l/m² 0,000klx 0,0min
03:00 17,8°C 74,6% 13,2°C 1017,9hPa 17,8°C 0,0km/h (0Bft) 0,0km/h 0,0l/m² 0,000klx 0,0min
02:55 17,8°C 74,6% 13,2°C 1017,9hPa 17,8°C 0,0km/h (0Bft) 0,0km/h 0,0l/m² 0,000klx 0,0min
02:50 17,7°C 75,2% 13,3°C 1017,9hPa 17,7°C 0,0km/h (0Bft) 0,0km/h 0,0l/m² 0,000klx 0,0min
02:45 17,7°C 74,6% 13,1°C 1017,9hPa 17,7°C 0,0km/h (0Bft) 0,0km/h 0,0l/m² 0,000klx 0,0min
02:40 17,8°C 74,4% 13,2°C 1017,9hPa 17,8°C 0,0km/h (0Bft) 0,0km/h 0,0l/m² 0,000klx 0,0min
02:35 17,8°C 73,7% 13,0°C 1017,9hPa 17,8°C 0,0km/h (0Bft) 0,0km/h 0,0l/m² 0,000klx 0,0min
02:30 17,8°C 74,0% 13,1°C 1018,0hPa 17,8°C 0,0km/h (0Bft) 0,0km/h 0,0l/m² 0,000klx 0,0min
02:25 17,8°C 74,8% 13,2°C 1018,1hPa 17,8°C 0,0km/h (0Bft) 0,0km/h 0,0l/m² 0,000klx 0,0min
02:20 17,8°C 74,9% 13,3°C 1018,2hPa 17,8°C 0,0km/h (0Bft) 0,0km/h 0,0l/m² 0,000klx 0,0min
02:15 17,8°C 74,8% 13,2°C 1018,1hPa 17,8°C 0,0km/h (0Bft) 0,0km/h 0,0l/m² 0,000klx 0,0min
02:10 17,8°C 74,9% 13,2°C 1018,1hPa 17,8°C 0,0km/h (0Bft) 0,0km/h 0,0l/m² 0,000klx 0,0min
02:05 17,7°C 75,4% 13,3°C 1018,1hPa 17,7°C 0,0km/h (0Bft) 0,0km/h 0,0l/m² 0,000klx 0,0min
02:00 17,7°C 75,2% 13,3°C 1018,1hPa 17,7°C 0,0km/h (0Bft) 0,0km/h 0,0l/m² 0,000klx 0,0min
01:55 17,6°C 75,5% 13,2°C 1018,1hPa 17,6°C 0,0km/h (0Bft) 0,0km/h 0,0l/m² 0,000klx 0,0min
01:50 17,5°C 75,5% 13,2°C 1018,1hPa 17,5°C 0,0km/h (0Bft) 0,0km/h 0,0l/m² 0,000klx 0,0min
01:45 17,5°C 75,2% 13,0°C 1018,1hPa 17,5°C 0,0km/h (0Bft) 0,0km/h 0,0l/m² 0,000klx 0,0min
01:40 17,5°C 74,0% 12,8°C 1018,1hPa 17,5°C 0,0km/h (0Bft) 0,0km/h 0,0l/m² 0,000klx 0,0min
01:35 17,7°C 73,4% 12,9°C 1018,1hPa 17,7°C 0,0km/h (0Bft) 0,0km/h 0,0l/m² 0,000klx 0,0min
01:30 18,0°C 71,8% 12,9°C 1018,2hPa 18,0°C 0,0km/h (0Bft) 0,0km/h 0,0l/m² 0,000klx 0,0min
01:25 18,1°C 71,7% 12,9°C 1018,2hPa 18,1°C 0,0km/h (0Bft) 0,0km/h 0,0l/m² 0,000klx 0,0min
01:20 18,2°C 71,6% 13,0°C 1018,2hPa 18,2°C 0,0km/h (0Bft) 0,0km/h 0,0l/m² 0,000klx 0,0min
01:15 18,1°C 72,4% 13,1°C 1018,1hPa 18,1°C 0,0km/h (0Bft) 0,0km/h 0,0l/m² 0,000klx 0,0min
01:10 18,4°C 71,8% 13,2°C 1018,1hPa 18,4°C 0,0km/h (0Bft) 0,0km/h 0,0l/m² 0,000klx 0,0min
01:05 18,5°C 72,4% 13,5°C 1018,1hPa 18,5°C 0,0km/h (0Bft) 0,0km/h 0,0l/m² 0,000klx 0,0min
01:00 18,6°C 73,9% 13,8°C 1018,2hPa 18,6°C 0,0km/h (0Bft) 0,0km/h 0,0l/m² 0,000klx 0,0min
00:55 18,7°C 75,4% 14,2°C 1018,1hPa 18,7°C 0,0km/h (0Bft) 0,0km/h 0,0l/m² 0,000klx 0,0min
00:50 18,6°C 78,1% 14,7°C 1018,1hPa 18,6°C 0,0km/h (0Bft) 0,0km/h 0,0l/m² 0,000klx 0,0min
00:45 18,8°C 77,0% 14,7°C 1018,0hPa 18,8°C 0,0km/h (0Bft) 0,0km/h 0,0l/m² 0,000klx 0,0min
00:40 19,1°C 75,2% 14,6°C 1018,0hPa 19,1°C 0,0km/h (0Bft) 0,0km/h 0,0l/m² 0,000klx 0,0min
00:35 19,2°C 75,5% 14,8°C 1017,9hPa 19,2°C 0,0km/h (0Bft) 0,0km/h 0,0l/m² 0,000klx 0,0min
00:30 19,3°C 75,5% 14,9°C 1017,9hPa 19,3°C 0,0km/h (0Bft) 0,0km/h 0,0l/m² 0,000klx 0,0min
00:25 19,1°C 78,1% 15,2°C 1017,9hPa 19,1°C 0,0km/h (0Bft) 0,0km/h 0,0l/m² 0,000klx 0,0min
00:20 19,1°C 79,3% 15,4°C 1017,9hPa 19,1°C 0,0km/h (0Bft) 0,0km/h 0,0l/m² 0,000klx 0,0min
00:15 19,1°C 79,3% 15,4°C 1017,8hPa 19,1°C 0,0km/h (0Bft) 0,0km/h 0,0l/m² 0,000klx 0,0min
00:10 19,2°C 78,7% 15,4°C 1017,8hPa 19,2°C 0,0km/h (0Bft) 0,0km/h 0,0l/m² 0,000klx 0,0min
00:05 19,2°C 78,8% 15,5°C 1017,7hPa 19,2°C 0,0km/h (0Bft) 0,0km/h 0,0l/m² 0,000klx 0,0min
00:00 19,4°C 78,2% 15,5°C 1017,7hPa 19,4°C 0,0km/h (0Bft) 0,0km/h 0,0l/m² 0,000klx 0,0min

Aktuelle Wetterdaten

15.08.2018 17:35 Uhr